CheckWX is a tool to help pilots better visualize weather data.  It is not intended as a substitute for an official pre-flight weather briefing.

18:03:47 UTC

KJVW METAR
John Bell Williams Airport
Raymond, Mississippi, USA
Current

9 mins ago

KJVW 211755Z AUTO 26004KT 10SM 32/26 A3000 RMK AO2 LTG DSNT S
Observed
Jul-21 @ 17:55 UTC
Wind
  • 260° at 4 KTS
Visibility
10 SM
Temperature
32°C / 90°F
Dewpoint
26°C / 79°F
Heat Index
42°C / 107°F
Humidity
71%
Altimeter
30" Hg
Pressure
1015.92 hPa
Previous

29 mins ago

KJVW 211735Z AUTO VRB04KT 10SM CLR 31/27 A3001 RMK AO2 LTG DSNT S
Observed
Jul-21 @ 17:35 UTC
Wind
  • Variable at 4 KTS
Visibility
10 SM
Flight Rules
VFR
Cloud Levels
  • Clear skies
Temperature
31°C / 88°F
Dewpoint
27°C / 81°F
Heat Index
41°C / 106°F
Humidity
79%
Altimeter
30.01" Hg
Pressure
1016.22 hPa
Previous

49 mins ago

KJVW 211715Z AUTO 00000KT 10SM CLR 30/27 A3002 RMK AO2
Observed
Jul-21 @ 17:15 UTC
Visibility
10 SM
Flight Rules
VFR
Cloud Levels
  • Clear skies
Temperature
30°C / 86°F
Dewpoint
27°C / 81°F
Heat Index
39°C / 102°F
Humidity
84%
Altimeter
30.02" Hg
Pressure
1016.62 hPa